Terminal Aerodrome Forecast
Issued by NWS Atlanta, GA

Home | Current Version | Previous Version | Text Only | Print | Product List | Glossary On
Versions: 1 2 3 4 5 6 7 8 9 10 11 12 13 14 15 16 17 18
816
FTUS42 KFFC 031123
TAFCSG
TAF
KCSG 031123Z 0312/0412 28007KT P6SM OVC015
     FM031500 29008KT P6SM BKN025
     FM031800 27010KT 5SM -TSRA BKN030CB
     FM032100 26010KT P6SM VCSH BKN050
     FM032300 25005KT P6SM BKN250
     FM040300 28008KT P6SM SCT250=

USA.gov is the U.S. government's official web portal to all federal, state and local government web resources and services.